createdAt,value
2018-09-26T00:02:30.206Z,93.21
2018-09-26T00:04:58.948Z,93.39
2018-09-26T00:07:27.435Z,93.55
2018-09-26T00:09:58.044Z,93.00
2018-09-26T00:12:26.567Z,93.30
2018-09-26T00:14:55.187Z,92.32
2018-09-26T00:17:23.681Z,91.35
2018-09-26T00:19:52.433Z,91.52
2018-09-26T00:22:20.923Z,91.76
2018-09-26T00:24:50.298Z,92.17
2018-09-26T00:27:18.797Z,92.48
2018-09-26T00:29:47.291Z,92.18
2018-09-26T00:32:15.960Z,91.76
2018-09-26T00:34:44.443Z,92.83
2018-09-26T00:37:13.081Z,92.80
2018-09-26T00:39:42.001Z,92.03
2018-09-26T00:42:10.888Z,91.27
2018-09-26T00:44:39.388Z,91.28
2018-09-26T00:47:08.135Z,91.41
2018-09-26T00:49:36.623Z,90.64
2018-09-26T00:52:05.649Z,91.16
2018-09-26T00:54:34.218Z,91.26
2018-09-26T00:57:03.682Z,91.60
2018-09-26T00:59:32.444Z,91.81
2018-09-26T01:02:00.958Z,92.08
2018-09-26T01:04:29.442Z,91.81
2018-09-26T01:06:58.096Z,92.04
2018-09-26T01:09:26.877Z,92.17
2018-09-26T01:11:55.367Z,92.74
2018-09-26T01:14:24.457Z,92.45
2018-09-26T01:16:53.089Z,92.33
2018-09-26T01:19:21.606Z,92.40
2018-09-26T01:21:50.339Z,92.29
2018-09-26T01:24:18.832Z,92.43
2018-09-26T01:26:47.569Z,93.13
2018-09-26T01:29:16.087Z,92.54
2018-09-26T01:31:44.655Z,92.92
2018-09-26T01:34:13.145Z,93.21
2018-09-26T01:36:41.657Z,92.58
2018-09-26T01:39:10.851Z,92.63
2018-09-26T01:41:39.374Z,93.50
2018-09-26T01:44:07.966Z,93.40
2018-09-26T01:46:36.619Z,93.08
2018-09-26T01:49:08.549Z,93.27
2018-09-26T01:51:37.534Z,93.19
2018-09-26T01:54:06.057Z,93.20
2018-09-26T01:56:34.630Z,92.51
2018-09-26T01:59:04.498Z,93.04
2018-09-26T02:01:33.054Z,92.83
2018-09-26T02:04:03.114Z,92.67
2018-09-26T02:06:31.620Z,92.67
2018-09-26T02:09:00.128Z,93.01
2018-09-26T02:11:28.651Z,92.99
2018-09-26T02:13:57.114Z,92.36
2018-09-26T02:16:25.608Z,92.10
2018-09-26T02:18:54.260Z,92.33
2018-09-26T02:21:22.766Z,92.55
2018-09-26T02:23:51.267Z,92.79
2018-09-26T02:26:19.889Z,92.13
2018-09-26T02:28:48.403Z,91.34
2018-09-26T02:31:17.280Z,90.63
2018-09-26T02:33:45.773Z,89.82
2018-09-26T02:36:14.367Z,89.51
2018-09-26T02:38:43.399Z,88.63
2018-09-26T02:41:12.083Z,87.82
2018-09-26T02:43:40.841Z,87.10
2018-09-26T02:46:09.344Z,87.46
2018-09-26T02:48:43.410Z,87.21
2018-09-26T02:51:11.902Z,87.66
2018-09-26T02:53:40.392Z,88.81
2018-09-26T02:56:08.902Z,89.37
2018-09-26T02:58:37.436Z,88.91
2018-09-26T03:01:06.059Z,89.25
2018-09-26T03:03:34.554Z,89.75
2018-09-26T03:06:04.708Z,89.49
2018-09-26T03:08:33.618Z,88.89
2018-09-26T03:11:03.777Z,87.79
2018-09-26T03:13:32.296Z,86.98
2018-09-26T03:16:00.945Z,85.67
2018-09-26T03:18:29.440Z,85.76
2018-09-26T03:20:57.974Z,85.83
2018-09-26T03:23:26.882Z,86.98
2018-09-26T03:25:55.733Z,87.90
2018-09-26T03:28:24.319Z,87.91
2018-09-26T03:30:52.846Z,87.74
2018-09-26T03:33:21.344Z,87.16
2018-09-26T03:35:49.863Z,87.38
2018-09-26T03:38:18.374Z,88.26
2018-09-26T03:40:46.935Z,88.22
2018-09-26T03:43:15.466Z,86.91
2018-09-26T03:45:50.264Z,86.81
2018-09-26T03:48:18.744Z,86.50
2018-09-26T03:50:47.278Z,87.12
2018-09-26T03:53:15.938Z,86.61
2018-09-26T03:55:44.530Z,85.74
2018-09-26T03:58:13.016Z,84.72
2018-09-26T04:00:41.505Z,84.00
2018-09-26T04:03:10.030Z,84.73
2018-09-26T04:05:38.542Z,85.36
2018-09-26T04:08:07.184Z,83.79
2018-09-26T04:10:35.970Z,83.52
2018-09-26T04:13:05.521Z,83.60
2018-09-26T04:15:38.221Z,84.18
2018-09-26T04:18:07.195Z,83.93
2018-09-26T04:20:38.006Z,83.77
2018-09-26T04:23:06.557Z,82.35
2018-09-26T04:25:35.097Z,82.42
2018-09-26T04:28:05.129Z,82.32
2018-09-26T04:30:35.226Z,83.07
2018-09-26T04:33:05.163Z,82.51
2018-09-26T04:35:33.682Z,82.85
2018-09-26T04:38:04.688Z,82.57
2018-09-26T04:40:33.181Z,82.24
2018-09-26T04:43:02.805Z,81.86
2018-09-26T04:45:32.214Z,81.26
2018-09-26T04:48:00.772Z,82.26
2018-09-26T04:50:29.283Z,82.96
2018-09-26T04:52:58.076Z,82.75
2018-09-26T04:55:26.589Z,81.64
2018-09-26T04:57:55.206Z,81.33
2018-09-26T05:00:23.965Z,81.20
2018-09-26T05:02:52.451Z,81.69
2018-09-26T05:05:20.925Z,81.37
2018-09-26T05:07:49.537Z,80.84
2018-09-26T05:10:18.088Z,80.35
2018-09-26T05:12:47.013Z,81.34
2018-09-26T05:15:15.708Z,82.33
2018-09-26T05:17:44.222Z,83.10
2018-09-26T05:20:13.053Z,81.02
2018-09-26T05:22:41.525Z,80.99
2018-09-26T05:25:10.067Z,82.06
2018-09-26T05:27:38.583Z,81.46
2018-09-26T05:30:07.109Z,81.44
2018-09-26T05:32:35.710Z,80.43
2018-09-26T05:35:06.161Z,79.87
2018-09-26T05:37:34.891Z,80.42
2018-09-26T05:40:05.481Z,79.84
2018-09-26T05:42:34.043Z,80.81
2018-09-26T05:45:03.781Z,81.20
2018-09-26T05:47:32.296Z,81.13
2018-09-26T05:50:00.761Z,80.91
2018-09-26T05:52:29.262Z,78.94
2018-09-26T05:54:57.739Z,78.30
2018-09-26T05:57:26.388Z,78.21
2018-09-26T05:59:55.178Z,77.99
2018-09-26T06:02:23.853Z,78.12
2018-09-26T06:04:52.754Z,77.82
2018-09-26T06:07:21.239Z,76.76
2018-09-26T06:09:49.971Z,77.58
2018-09-26T06:12:19.138Z,77.18
2018-09-26T06:14:47.664Z,78.27
2018-09-26T06:17:16.239Z,78.73
2018-09-26T06:19:44.762Z,76.96
2018-09-26T06:22:13.253Z,77.62
2018-09-26T06:24:41.853Z,78.05
2018-09-26T06:27:10.346Z,76.95
2018-09-26T06:29:39.360Z,76.87
2018-09-26T06:32:07.901Z,76.95
2018-09-26T06:34:36.406Z,76.25
2018-09-26T06:37:05.033Z,76.30
2018-09-26T06:39:35.417Z,75.71
2018-09-26T06:42:05.445Z,75.27
2018-09-26T06:44:33.940Z,75.08
2018-09-26T06:47:03.694Z,75.16
2018-09-26T06:49:32.311Z,74.82
2018-09-26T06:52:00.831Z,74.63
2018-09-26T06:54:29.408Z,75.44
2018-09-26T06:56:57.957Z,75.46
2018-09-26T06:59:26.487Z,74.93
2018-09-26T07:01:55.006Z,74.86
2018-09-26T07:04:23.833Z,73.37
2018-09-26T07:06:52.856Z,73.39
2018-09-26T07:09:21.363Z,74.11
2018-09-26T07:11:49.837Z,73.39
2018-09-26T07:14:18.352Z,73.63
2018-09-26T07:16:46.840Z,72.65
2018-09-26T07:19:15.326Z,72.19
2018-09-26T07:21:43.858Z,72.07
2018-09-26T07:24:12.357Z,70.91
2018-09-26T07:26:40.866Z,71.16
2018-09-26T07:29:09.692Z,70.35
2018-09-26T07:31:38.243Z,69.94
2018-09-26T07:34:07.177Z,69.72
2018-09-26T07:36:35.685Z,69.57
2018-09-26T07:39:09.977Z,69.40
2018-09-26T07:41:38.845Z,70.51
2018-09-26T07:44:07.508Z,70.69
2018-09-26T07:46:36.319Z,69.42
2018-09-26T07:49:05.499Z,70.31
2018-09-26T07:51:34.007Z,67.58
2018-09-26T07:54:04.392Z,68.52
2018-09-26T07:56:32.946Z,64.38
2018-09-26T07:59:02.748Z,65.25
2018-09-26T08:01:31.253Z,66.23
2018-09-26T08:03:59.821Z,63.29
2018-09-26T08:06:28.344Z,63.89
2018-09-26T08:08:56.844Z,64.67
2018-09-26T08:11:26.370Z,63.38
2018-09-26T08:13:54.855Z,63.21
2018-09-26T08:16:23.349Z,63.66
2018-09-26T08:18:51.887Z,62.29
2018-09-26T08:21:20.476Z,62.56
2018-09-26T08:23:49.084Z,62.71
2018-09-26T08:26:17.873Z,63.40
2018-09-26T08:28:46.913Z,63.73
2018-09-26T08:31:15.661Z,61.10
2018-09-26T08:33:44.164Z,62.49
2018-09-26T08:36:12.814Z,62.67
2018-09-26T08:38:41.430Z,61.56
2018-09-26T08:41:09.952Z,62.25
2018-09-26T08:43:38.485Z,59.03
2018-09-26T08:46:06.988Z,59.24
2018-09-26T08:48:35.467Z,58.59
2018-09-26T08:51:05.093Z,60.61
2018-09-26T08:53:33.598Z,58.37
2018-09-26T08:56:04.660Z,59.38
2018-09-26T08:58:33.188Z,59.87
2018-09-26T09:01:02.738Z,60.21
2018-09-26T09:03:31.252Z,59.30
2018-09-26T09:05:59.753Z,59.37
2018-09-26T09:08:28.345Z,59.02
2018-09-26T09:10:56.910Z,59.08
2018-09-26T09:13:25.443Z,56.69
2018-09-26T09:15:53.980Z,57.95
2018-09-26T09:18:22.528Z,57.96
2018-09-26T09:20:51.105Z,57.81
2018-09-26T09:23:19.608Z,58.36
2018-09-26T09:25:48.141Z,57.40
2018-09-26T09:28:16.797Z,57.49
2018-09-26T09:30:45.433Z,58.45
2018-09-26T09:33:13.933Z,58.16
2018-09-26T09:35:42.695Z,56.54
2018-09-26T09:38:11.208Z,57.36
2018-09-26T09:40:39.743Z,57.21
2018-09-26T09:43:09.150Z,56.04
2018-09-26T09:45:37.618Z,56.54
2018-09-26T09:48:06.093Z,54.89
2018-09-26T09:50:35.278Z,56.25
2018-09-26T09:53:06.160Z,55.60
2018-09-26T09:55:34.704Z,55.67
2018-09-26T09:58:05.714Z,55.63
2018-09-26T10:00:39.891Z,55.39
2018-09-26T10:03:08.617Z,54.69
2018-09-26T10:05:37.079Z,55.16
2018-09-26T10:08:06.007Z,55.14
2018-09-26T10:10:34.476Z,55.68
2018-09-26T10:13:04.862Z,54.99
2018-09-26T10:15:33.393Z,54.28
2018-09-26T10:18:03.863Z,54.67
2018-09-26T10:20:32.595Z,54.58
2018-09-26T10:23:02.352Z,55.37
2018-09-26T10:25:30.876Z,54.25
2018-09-26T10:27:59.413Z,55.43
2018-09-26T10:30:27.949Z,53.23
2018-09-26T10:32:56.561Z,53.40
2018-09-26T10:35:25.119Z,54.19
2018-09-26T10:37:53.757Z,54.40
2018-09-26T10:40:23.815Z,53.87
2018-09-26T10:42:52.349Z,53.79
2018-09-26T10:45:20.925Z,53.48
2018-09-26T10:47:49.708Z,54.66
2018-09-26T10:50:18.234Z,54.31
2018-09-26T10:52:46.713Z,54.77
2018-09-26T10:55:15.499Z,54.10
2018-09-26T10:57:44.007Z,54.02
2018-09-26T11:00:12.524Z,54.86
2018-09-26T11:02:41.736Z,53.14
2018-09-26T11:05:10.242Z,52.99
2018-09-26T11:07:38.965Z,52.79
2018-09-26T11:10:07.551Z,53.64
2018-09-26T11:12:36.359Z,52.63
2018-09-26T11:15:06.359Z,52.76
2018-09-26T11:17:35.276Z,52.27
2018-09-26T11:20:05.808Z,52.02
2018-09-26T11:22:34.410Z,53.97
2018-09-26T11:25:04.619Z,52.85
2018-09-26T11:27:33.262Z,50.61
2018-09-26T11:30:05.979Z,51.92
2018-09-26T11:32:34.525Z,51.40
2018-09-26T11:35:04.914Z,50.37
2018-09-26T11:37:33.430Z,48.42
2018-09-26T11:40:19.135Z,50.62
2018-09-26T11:42:47.660Z,49.63
2018-09-26T11:45:16.569Z,50.56
2018-09-26T11:47:45.448Z,48.78
2018-09-26T11:50:13.994Z,49.70
2018-09-26T11:52:48.427Z,48.99
2018-09-26T11:55:17.328Z,50.08
2018-09-26T11:57:45.903Z,49.68
2018-09-26T12:00:14.532Z,48.36
2018-09-26T12:02:43.214Z,47.94
2018-09-26T12:05:11.654Z,49.46
2018-09-26T12:07:40.152Z,48.45
2018-09-26T12:10:08.750Z,48.09
2018-09-26T12:12:37.434Z,47.92
2018-09-26T12:15:05.962Z,47.60
2018-09-26T12:17:36.037Z,45.24
2018-09-26T12:20:08.664Z,43.89
2018-09-26T12:22:38.019Z,42.55
2018-09-26T12:25:06.811Z,41.50
2018-09-26T12:27:35.480Z,44.35
2018-09-26T12:30:06.632Z,42.40
2018-09-26T12:32:35.138Z,43.11
2018-09-26T12:35:05.511Z,43.17
2018-09-26T12:37:34.000Z,43.09
2018-09-26T12:40:10.127Z,46.58
2018-09-26T12:42:39.130Z,40.65
2018-09-26T12:45:07.648Z,41.76
2018-09-26T12:47:36.187Z,40.81
2018-09-26T12:50:05.820Z,42.49
2018-09-26T12:52:35.139Z,42.15
2018-09-26T12:55:05.595Z,37.34
2018-09-26T12:57:34.087Z,36.88
2018-09-26T13:00:05.750Z,36.51
2018-09-26T13:02:34.274Z,39.99
2018-09-26T13:05:05.249Z,38.97
2018-09-26T13:07:33.746Z,36.95
2018-09-26T13:10:03.805Z,39.48
2018-09-26T13:12:32.387Z,39.08
2018-09-26T13:15:00.905Z,38.21
2018-09-26T13:17:29.657Z,39.88
2018-09-26T13:19:58.734Z,38.19
2018-09-26T13:22:27.295Z,38.56
2018-09-26T13:24:55.815Z,37.54
2018-09-26T13:27:24.342Z,37.00
2018-09-26T13:29:52.924Z,36.22
2018-09-26T13:32:21.520Z,39.43
2018-09-26T13:34:49.970Z,36.96
2018-09-26T13:37:18.504Z,36.51
2018-09-26T13:39:46.989Z,34.40
2018-09-26T13:42:15.556Z,35.84
2018-09-26T13:44:44.008Z,39.92
2018-09-26T13:47:12.575Z,38.21
2018-09-26T13:49:41.060Z,40.05
2018-09-26T13:52:09.664Z,37.82
2018-09-26T13:54:38.170Z,38.10
2018-09-26T13:57:06.733Z,38.46
2018-09-26T13:59:35.239Z,36.04
2018-09-26T14:02:05.377Z,37.51
2018-09-26T14:04:33.866Z,35.12
2018-09-26T14:07:04.085Z,37.16
2018-09-26T14:09:32.596Z,37.27
2018-09-26T14:12:02.781Z,34.69
2018-09-26T14:14:31.455Z,34.45
2018-09-26T14:17:00.148Z,37.12
2018-09-26T14:19:29.242Z,35.96
2018-09-26T14:21:58.046Z,36.68
2018-09-26T14:24:26.540Z,35.81
2018-09-26T14:26:55.062Z,37.63
2018-09-26T14:29:23.581Z,38.32
2018-09-26T14:31:52.291Z,35.35
2018-09-26T14:34:21.190Z,36.26
2018-09-26T14:36:49.725Z,37.71
2018-09-26T14:39:18.245Z,37.01
2018-09-26T14:41:46.845Z,33.58
2018-09-26T14:44:15.516Z,34.53
2018-09-26T14:46:43.921Z,37.57
2018-09-26T14:49:12.828Z,37.08
2018-09-26T14:51:41.357Z,38.95
2018-09-26T14:54:10.256Z,35.52
2018-09-26T14:56:38.961Z,36.60
2018-09-26T14:59:07.539Z,34.88
2018-09-26T15:01:36.107Z,34.66
2018-09-26T15:04:05.344Z,34.53
2018-09-26T15:06:33.867Z,36.87
2018-09-26T15:09:04.658Z,36.41
2018-09-26T15:11:33.214Z,36.74
2018-09-26T15:14:02.823Z,36.68
2018-09-26T15:16:31.408Z,36.17
2018-09-26T15:19:00.040Z,36.81
2018-09-26T15:21:28.623Z,37.24
2018-09-26T15:23:57.113Z,36.84
2018-09-26T15:26:25.671Z,37.43
2018-09-26T15:28:54.216Z,37.47
2018-09-26T15:31:22.753Z,38.73
2018-09-26T15:33:51.623Z,38.95
2018-09-26T15:36:20.234Z,40.52
2018-09-26T15:38:48.695Z,41.37
2018-09-26T15:41:17.453Z,41.46
2018-09-26T15:43:46.074Z,43.37
2018-09-26T15:46:14.620Z,43.38
2018-09-26T15:48:43.171Z,41.71
2018-09-26T15:51:11.815Z,41.98
2018-09-26T15:53:40.367Z,43.05
2018-09-26T15:56:09.106Z,41.45
2018-09-26T15:58:37.814Z,42.39
2018-09-26T16:01:06.894Z,42.34
2018-09-26T16:03:35.466Z,42.15
2018-09-26T16:06:04.233Z,41.65
2018-09-26T16:08:32.758Z,40.86
2018-09-26T16:11:02.783Z,41.76
2018-09-26T16:13:31.311Z,39.24
2018-09-26T16:15:59.812Z,41.78
2018-09-26T16:18:28.727Z,42.35
2018-09-26T16:20:57.243Z,42.60
2018-09-26T16:23:25.757Z,40.99
2018-09-26T16:25:54.405Z,42.44
2018-09-26T16:28:23.157Z,43.00
2018-09-26T16:30:51.584Z,42.74
2018-09-26T16:33:20.114Z,42.86
2018-09-26T16:35:48.656Z,43.14
2018-09-26T16:38:17.247Z,43.92
2018-09-26T16:40:45.765Z,43.48
2018-09-26T16:43:14.313Z,44.61
2018-09-26T16:45:42.824Z,43.72
2018-09-26T16:48:11.886Z,44.23
2018-09-26T16:50:40.929Z,44.32
2018-09-26T16:53:09.707Z,44.42
2018-09-26T16:55:38.349Z,44.11
2018-09-26T16:58:07.047Z,44.59
2018-09-26T17:00:36.364Z,44.51
2018-09-26T17:03:08.046Z,45.16
2018-09-26T17:05:36.798Z,46.73
2018-09-26T17:08:05.798Z,45.10
2018-09-26T17:10:34.288Z,44.86
2018-09-26T17:13:05.241Z,47.06
2018-09-26T17:15:33.909Z,46.39
2018-09-26T17:18:04.138Z,46.13
2018-09-26T17:20:32.690Z,46.85
2018-09-26T17:23:02.710Z,45.86
2018-09-26T17:25:31.259Z,46.81
2018-09-26T17:27:59.821Z,45.92
2018-09-26T17:30:28.367Z,47.64
2018-09-26T17:32:57.155Z,48.29
2018-09-26T17:35:25.763Z,47.32
2018-09-26T17:37:54.543Z,48.27
2018-09-26T17:40:23.137Z,47.11
2018-09-26T17:42:51.652Z,48.83
2018-09-26T17:45:20.255Z,47.35
2018-09-26T17:47:48.772Z,47.50
2018-09-26T17:50:17.372Z,46.95
2018-09-26T17:52:45.873Z,48.14
2018-09-26T17:55:14.442Z,47.54
2018-09-26T17:57:42.951Z,48.78
2018-09-26T18:00:11.918Z,49.77
2018-09-26T18:02:40.623Z,50.54
2018-09-26T18:05:09.204Z,50.63
2018-09-26T18:07:37.770Z,49.59
2018-09-26T18:10:10.831Z,50.18
2018-09-26T18:12:39.593Z,50.32
2018-09-26T18:15:08.234Z,50.41
2018-09-26T18:17:36.906Z,50.55
2018-09-26T18:20:05.637Z,51.57
2018-09-26T18:22:34.661Z,50.95
2018-09-26T18:25:07.765Z,52.32
2018-09-26T18:27:36.523Z,51.47
2018-09-26T18:30:06.187Z,50.47
2018-09-26T18:32:35.117Z,50.05
2018-09-26T18:35:06.720Z,51.39
2018-09-26T18:37:35.224Z,51.53
2018-09-26T18:40:05.720Z,50.56
2018-09-26T18:42:34.298Z,50.99
2018-09-26T18:45:05.385Z,50.67
2018-09-26T18:47:33.906Z,51.30
2018-09-26T18:50:04.006Z,50.36
2018-09-26T18:52:32.747Z,50.33
2018-09-26T18:55:03.417Z,50.51
2018-09-26T18:57:32.098Z,49.80
2018-09-26T19:00:00.635Z,51.34
2018-09-26T19:02:29.318Z,51.07
2018-09-26T19:04:58.351Z,50.72
2018-09-26T19:07:26.815Z,51.25
2018-09-26T19:09:55.510Z,51.22
2018-09-26T19:12:24.331Z,50.51
2018-09-26T19:14:52.863Z,50.83
2018-09-26T19:17:21.435Z,52.14
2018-09-26T19:19:50.015Z,52.29
2018-09-26T19:22:18.558Z,51.31
2018-09-26T19:24:47.279Z,52.18
2018-09-26T19:27:15.919Z,53.44
2018-09-26T19:29:45.264Z,54.23
2018-09-26T19:32:14.245Z,53.75
2018-09-26T19:34:42.827Z,52.76
2018-09-26T19:37:11.447Z,53.24
2018-09-26T19:39:40.036Z,52.73
2018-09-26T19:42:08.601Z,53.95
2018-09-26T19:44:37.150Z,53.65
2018-09-26T19:47:05.767Z,52.78
2018-09-26T19:49:34.317Z,53.00
2018-09-26T19:52:05.341Z,52.73
2018-09-26T19:54:33.857Z,54.27
2018-09-26T19:57:03.839Z,54.63
2018-09-26T19:59:32.341Z,54.66
2018-09-26T20:02:00.880Z,54.63
2018-09-26T20:04:29.614Z,55.73
2018-09-26T20:06:58.191Z,56.20
2018-09-26T20:09:26.692Z,56.31
2018-09-26T20:11:55.785Z,55.44
2018-09-26T20:14:24.294Z,57.07
2018-09-26T20:16:53.239Z,56.86
2018-09-26T20:19:22.175Z,55.84
2018-09-26T20:21:50.739Z,56.00
2018-09-26T20:24:20.467Z,57.06
2018-09-26T20:26:49.136Z,57.68
2018-09-26T20:29:18.024Z,58.17
2018-09-26T20:31:46.614Z,58.54
2018-09-26T20:34:15.230Z,58.14
2018-09-26T20:36:43.725Z,59.16
2018-09-26T20:39:12.900Z,60.22
2018-09-26T20:41:41.435Z,60.22
2018-09-26T20:44:10.133Z,59.48
2018-09-26T20:46:38.651Z,58.92
2018-09-26T20:49:07.225Z,58.71
2018-09-26T20:51:35.768Z,59.70
2018-09-26T20:54:06.018Z,60.78
2018-09-26T20:56:34.769Z,59.28
2018-09-26T20:59:05.541Z,60.07
2018-09-26T21:01:34.199Z,60.16
2018-09-26T21:04:05.117Z,60.12
2018-09-26T21:06:33.618Z,60.55
2018-09-26T21:09:05.140Z,60.97
2018-09-26T21:11:33.710Z,61.02
2018-09-26T21:14:03.351Z,60.83
2018-09-26T21:16:32.176Z,61.45
2018-09-26T21:19:00.673Z,62.25
2018-09-26T21:21:29.244Z,62.51
2018-09-26T21:23:57.791Z,60.94
2018-09-26T21:26:26.714Z,61.19
2018-09-26T21:28:55.251Z,61.27
2018-09-26T21:31:24.203Z,59.70
2018-09-26T21:33:52.687Z,61.38
2018-09-26T21:36:21.256Z,60.68
2018-09-26T21:38:49.830Z,60.54
2018-09-26T21:41:18.391Z,60.11
2018-09-26T21:43:47.347Z,61.36
2018-09-26T21:46:15.864Z,61.35
2018-09-26T21:48:44.398Z,61.39
2018-09-26T21:51:12.894Z,60.53
2018-09-26T21:53:41.449Z,60.08
2018-09-26T21:56:09.958Z,60.84
2018-09-26T21:58:38.481Z,60.73
2018-09-26T22:01:12.261Z,59.99
2018-09-26T22:03:40.813Z,59.97
2018-09-26T22:06:09.692Z,60.79
2018-09-26T22:08:38.797Z,60.45
2018-09-26T22:11:07.334Z,61.35
2018-09-26T22:13:36.101Z,60.49
2018-09-26T22:16:05.648Z,59.94
2018-09-26T22:18:34.169Z,60.89
2018-09-26T22:21:04.949Z,61.02
2018-09-26T22:23:33.551Z,61.27
2018-09-26T22:26:03.694Z,60.93
2018-09-26T22:28:32.192Z,61.20
2018-09-26T22:31:03.969Z,61.54
2018-09-26T22:33:32.438Z,61.75
2018-09-26T22:36:00.979Z,62.03
2018-09-26T22:38:29.452Z,61.53
2018-09-26T22:40:57.973Z,61.03
2018-09-26T22:43:26.524Z,60.85
2018-09-26T22:45:55.073Z,60.78
2018-09-26T22:48:23.610Z,61.47
2018-09-26T22:50:52.123Z,61.77
2018-09-26T22:53:20.639Z,62.01
2018-09-26T22:55:49.379Z,62.69
2018-09-26T22:58:17.863Z,61.39
2018-09-26T23:00:46.401Z,61.85
2018-09-26T23:03:14.896Z,63.28
2018-09-26T23:05:43.452Z,61.73
2018-09-26T23:08:11.984Z,61.77
2018-09-26T23:10:40.500Z,62.75
2018-09-26T23:13:09.943Z,62.07
2018-09-26T23:15:38.484Z,62.63
2018-09-26T23:18:07.068Z,62.89
2018-09-26T23:20:35.570Z,64.30
2018-09-26T23:23:05.943Z,64.12
2018-09-26T23:25:34.713Z,63.78
2018-09-26T23:28:04.792Z,63.56
2018-09-26T23:30:33.325Z,64.30
2018-09-26T23:33:06.278Z,64.95
2018-09-26T23:35:34.906Z,65.52
2018-09-26T23:38:05.662Z,65.16
2018-09-26T23:40:34.193Z,65.91
2018-09-26T23:43:04.310Z,66.56
2018-09-26T23:45:32.829Z,65.63
2018-09-26T23:48:03.624Z,66.21
2018-09-26T23:50:32.256Z,66.21
2018-09-26T23:53:00.757Z,66.29
2018-09-26T23:55:29.370Z,65.50
2018-09-26T23:57:57.922Z,65.87
